sensor_id;sensor_type;location;lat;lon;timestamp;P1;durP1;ratioP1;P2;durP2;ratioP2
43676;SDS011;29275;48.800;18.102;2022-08-11T00:00:42;2.22;;;1.30;;
43676;SDS011;29275;48.800;18.102;2022-08-11T00:03:56;2.30;;;1.00;;
43676;SDS011;29275;48.800;18.102;2022-08-11T00:07:01;1.52;;;0.90;;
43676;SDS011;29275;48.800;18.102;2022-08-11T00:10:09;3.50;;;0.85;;
43676;SDS011;29275;48.800;18.102;2022-08-11T00:13:12;1.70;;;1.03;;
43676;SDS011;29275;48.800;18.102;2022-08-11T00:16:19;2.75;;;1.05;;
43676;SDS011;29275;48.800;18.102;2022-08-11T00:19:27;2.88;;;1.20;;
43676;SDS011;29275;48.800;18.102;2022-08-11T00:23:01;2.38;;;1.10;;
43676;SDS011;29275;48.800;18.102;2022-08-11T00:26:09;2.13;;;1.02;;
43676;SDS011;29275;48.800;18.102;2022-08-11T00:29:12;1.27;;;0.75;;
43676;SDS011;29275;48.800;18.102;2022-08-11T00:32:14;3.40;;;1.10;;
43676;SDS011;29275;48.800;18.102;2022-08-11T00:35:16;2.10;;;1.05;;
43676;SDS011;29275;48.800;18.102;2022-08-11T00:38:41;1.20;;;0.70;;
43676;SDS011;29275;48.800;18.102;2022-08-11T00:48:33;2.47;;;0.82;;
43676;SDS011;29275;48.800;18.102;2022-08-11T00:51:45;4.05;;;1.20;;
43676;SDS011;29275;48.800;18.102;2022-08-11T01:08:45;9.10;;;0.88;;
43676;SDS011;29275;48.800;18.102;2022-08-11T01:22:22;1.80;;;1.00;;
43676;SDS011;29275;48.800;18.102;2022-08-11T01:46:32;3.38;;;1.08;;
43676;SDS011;29275;48.800;18.102;2022-08-11T01:56:45;4.25;;;1.25;;
43676;SDS011;29275;48.800;18.102;2022-08-11T02:03:14;3.85;;;1.30;;
43676;SDS011;29275;48.800;18.102;2022-08-11T02:10:19;1.67;;;1.17;;
43676;SDS011;29275;48.800;18.102;2022-08-11T02:14:02;2.08;;;1.30;;
43676;SDS011;29275;48.800;18.102;2022-08-11T02:17:22;4.20;;;1.20;;
43676;SDS011;29275;48.800;18.102;2022-08-11T02:20:55;1.95;;;1.08;;
43676;SDS011;29275;48.800;18.102;2022-08-11T02:24:18;4.70;;;0.97;;
43676;SDS011;29275;48.800;18.102;2022-08-11T02:27:33;2.63;;;1.30;;
43676;SDS011;29275;48.800;18.102;2022-08-11T02:30:59;1.98;;;1.25;;
43676;SDS011;29275;48.800;18.102;2022-08-11T02:49:04;2.67;;;1.47;;
43676;SDS011;29275;48.800;18.102;2022-08-11T02:52:24;2.88;;;1.45;;
43676;SDS011;29275;48.800;18.102;2022-08-11T02:55:41;3.05;;;1.65;;
43676;SDS011;29275;48.800;18.102;2022-08-11T02:58:59;2.47;;;0.93;;
43676;SDS011;29275;48.800;18.102;2022-08-11T03:05:39;2.85;;;1.50;;
43676;SDS011;29275;48.800;18.102;2022-08-11T03:08:55;5.60;;;1.40;;
43676;SDS011;29275;48.800;18.102;2022-08-11T03:12:01;2.38;;;1.42;;
43676;SDS011;29275;48.800;18.102;2022-08-11T03:16:02;3.50;;;1.20;;
43676;SDS011;29275;48.800;18.102;2022-08-11T03:26:32;4.07;;;1.33;;
43676;SDS011;29275;48.800;18.102;2022-08-11T03:30:26;3.45;;;1.40;;
43676;SDS011;29275;48.800;18.102;2022-08-11T03:33:22;2.83;;;1.50;;
43676;SDS011;29275;48.800;18.102;2022-08-11T04:25:53;4.22;;;1.80;;
43676;SDS011;29275;48.800;18.102;2022-08-11T04:33:09;3.47;;;1.55;;
43676;SDS011;29275;48.800;18.102;2022-08-11T04:47:10;2.85;;;1.48;;
43676;SDS011;29275;48.800;18.102;2022-08-11T05:12:32;6.50;;;1.48;;
43676;SDS011;29275;48.800;18.102;2022-08-11T05:15:46;5.38;;;1.52;;
43676;SDS011;29275;48.800;18.102;2022-08-11T05:19:14;7.38;;;1.92;;
43676;SDS011;29275;48.800;18.102;2022-08-11T05:22:41;6.97;;;1.85;;
43676;SDS011;29275;48.800;18.102;2022-08-11T05:26:09;2.88;;;1.73;;
43676;SDS011;29275;48.800;18.102;2022-08-11T05:29:54;3.88;;;1.70;;
43676;SDS011;29275;48.800;18.102;2022-08-11T05:33:22;5.50;;;1.65;;
43676;SDS011;29275;48.800;18.102;2022-08-11T05:36:51;2.88;;;1.52;;
43676;SDS011;29275;48.800;18.102;2022-08-11T05:40:08;2.78;;;1.40;;
43676;SDS011;29275;48.800;18.102;2022-08-11T05:43:30;7.13;;;1.40;;
43676;SDS011;29275;48.800;18.102;2022-08-11T05:47:20;4.50;;;1.80;;
43676;SDS011;29275;48.800;18.102;2022-08-11T05:50:52;4.50;;;1.23;;
43676;SDS011;29275;48.800;18.102;2022-08-11T05:54:26;2.05;;;1.20;;
43676;SDS011;29275;48.800;18.102;2022-08-11T05:57:54;3.80;;;2.10;;
43676;SDS011;29275;48.800;18.102;2022-08-11T06:01:06;5.43;;;1.60;;
43676;SDS011;29275;48.800;18.102;2022-08-11T06:04:18;4.18;;;1.70;;
43676;SDS011;29275;48.800;18.102;2022-08-11T06:07:27;3.47;;;1.60;;
43676;SDS011;29275;48.800;18.102;2022-08-11T06:10:52;2.63;;;1.50;;
43676;SDS011;29275;48.800;18.102;2022-08-11T06:14:10;3.47;;;1.70;;
43676;SDS011;29275;48.800;18.102;2022-08-11T06:17:21;3.88;;;1.40;;
43676;SDS011;29275;48.800;18.102;2022-08-11T06:20:50;4.03;;;1.30;;
43676;SDS011;29275;48.800;18.102;2022-08-11T06:23:54;3.33;;;1.42;;
43676;SDS011;29275;48.800;18.102;2022-08-11T06:26:57;4.30;;;1.70;;
43676;SDS011;29275;48.800;18.102;2022-08-11T06:30:13;2.47;;;1.33;;
43676;SDS011;29275;48.800;18.102;2022-08-11T06:33:20;4.72;;;1.67;;
43676;SDS011;29275;48.800;18.102;2022-08-11T06:36:51;3.72;;;1.55;;
43676;SDS011;29275;48.800;18.102;2022-08-11T06:40:04;4.45;;;1.63;;
43676;SDS011;29275;48.800;18.102;2022-08-11T06:43:21;2.92;;;1.40;;
43676;SDS011;29275;48.800;18.102;2022-08-11T06:46:44;7.00;;;1.50;;
43676;SDS011;29275;48.800;18.102;2022-08-11T06:49:48;2.33;;;1.35;;
43676;SDS011;29275;48.800;18.102;2022-08-11T06:53:09;5.15;;;1.95;;
43676;SDS011;29275;48.800;18.102;2022-08-11T06:56:13;4.05;;;1.48;;
43676;SDS011;29275;48.800;18.102;2022-08-11T06:59:34;5.10;;;1.65;;
43676;SDS011;29275;48.800;18.102;2022-08-11T07:03:00;2.90;;;1.45;;
43676;SDS011;29275;48.800;18.102;2022-08-11T07:06:14;4.55;;;1.80;;
43676;SDS011;29275;48.800;18.102;2022-08-11T07:09:59;3.58;;;1.50;;
43676;SDS011;29275;48.800;18.102;2022-08-11T07:13:26;4.97;;;1.70;;
43676;SDS011;29275;48.800;18.102;2022-08-11T07:16:48;3.47;;;1.52;;
43676;SDS011;29275;48.800;18.102;2022-08-11T07:19:56;4.85;;;1.90;;
43676;SDS011;29275;48.800;18.102;2022-08-11T07:23:18;2.60;;;1.52;;
43676;SDS011;29275;48.800;18.102;2022-08-11T07:26:39;4.07;;;1.70;;
43676;SDS011;29275;48.800;18.102;2022-08-11T07:30:05;3.17;;;1.48;;
43676;SDS011;29275;48.800;18.102;2022-08-11T07:33:10;3.15;;;1.63;;
43676;SDS011;29275;48.800;18.102;2022-08-11T07:36:36;2.70;;;1.30;;
43676;SDS011;29275;48.800;18.102;2022-08-11T07:39:40;5.00;;;1.70;;
43676;SDS011;29275;48.800;18.102;2022-08-11T07:42:45;4.07;;;1.20;;
43676;SDS011;29275;48.800;18.102;2022-08-11T07:45:47;2.88;;;1.30;;
43676;SDS011;29275;48.800;18.102;2022-08-11T07:49:08;4.07;;;1.40;;
43676;SDS011;29275;48.800;18.102;2022-08-11T07:52:30;2.38;;;1.23;;
43676;SDS011;29275;48.800;18.102;2022-08-11T07:55:34;3.60;;;1.30;;
43676;SDS011;29275;48.800;18.102;2022-08-11T07:58:52;1.90;;;1.00;;
43676;SDS011;29275;48.800;18.102;2022-08-11T08:02:15;4.10;;;1.10;;
43676;SDS011;29275;48.800;18.102;2022-08-11T08:05:36;2.00;;;1.20;;
43676;SDS011;29275;48.800;18.102;2022-08-11T08:08:57;2.70;;;1.10;;
43676;SDS011;29275;48.800;18.102;2022-08-11T08:12:19;4.60;;;1.63;;
43676;SDS011;29275;48.800;18.102;2022-08-11T08:15:41;3.70;;;1.05;;
43676;SDS011;29275;48.800;18.102;2022-08-11T08:19:02;2.72;;;1.25;;
43676;SDS011;29275;48.800;18.102;2022-08-11T08:22:04;4.50;;;1.40;;
43676;SDS011;29275;48.800;18.102;2022-08-11T08:25:33;3.33;;;1.40;;
43676;SDS011;29275;48.800;18.102;2022-08-11T08:28:37;2.58;;;1.02;;
43676;SDS011;29275;48.800;18.102;2022-08-11T08:31:40;4.35;;;1.15;;
43676;SDS011;29275;48.800;18.102;2022-08-11T08:34:43;2.72;;;1.23;;
43676;SDS011;29275;48.800;18.102;2022-08-11T08:37:49;2.85;;;1.20;;
43676;SDS011;29275;48.800;18.102;2022-08-11T08:40:53;2.75;;;1.20;;
43676;SDS011;29275;48.800;18.102;2022-08-11T08:43:58;1.70;;;1.15;;
43676;SDS011;29275;48.800;18.102;2022-08-11T08:47:23;1.48;;;0.90;;
43676;SDS011;29275;48.800;18.102;2022-08-11T08:50:44;2.20;;;1.10;;
43676;SDS011;29275;48.800;18.102;2022-08-11T08:54:28;1.35;;;0.98;;
43676;SDS011;29275;48.800;18.102;2022-08-11T08:57:34;3.95;;;1.13;;
43676;SDS011;29275;48.800;18.102;2022-08-11T09:00:43;2.58;;;1.13;;
43676;SDS011;29275;48.800;18.102;2022-08-11T09:03:49;3.03;;;1.27;;
43676;SDS011;29275;48.800;18.102;2022-08-11T09:07:10;2.42;;;0.90;;
43676;SDS011;29275;48.800;18.102;2022-08-11T09:10:13;2.92;;;0.90;;
43676;SDS011;29275;48.800;18.102;2022-08-11T09:13:19;6.90;;;0.80;;
43676;SDS011;29275;48.800;18.102;2022-08-11T09:16:22;3.28;;;1.00;;
43676;SDS011;29275;48.800;18.102;2022-08-11T09:19:27;8.80;;;1.02;;
43676;SDS011;29275;48.800;18.102;2022-08-11T09:22:35;1.90;;;0.90;;
43676;SDS011;29275;48.800;18.102;2022-08-11T09:26:18;1.85;;;1.00;;
43676;SDS011;29275;48.800;18.102;2022-08-11T09:29:41;4.57;;;1.10;;
43676;SDS011;29275;48.800;18.102;2022-08-11T09:32:45;1.55;;;0.90;;
43676;SDS011;29275;48.800;18.102;2022-08-11T09:35:48;7.30;;;1.27;;
43676;SDS011;29275;48.800;18.102;2022-08-11T09:38:52;5.47;;;1.33;;
43676;SDS011;29275;48.800;18.102;2022-08-11T09:42:13;1.27;;;0.70;;
43676;SDS011;29275;48.800;18.102;2022-08-11T09:45:23;2.10;;;1.00;;
43676;SDS011;29275;48.800;18.102;2022-08-11T09:48:28;2.65;;;0.90;;
43676;SDS011;29275;48.800;18.102;2022-08-11T09:51:34;1.23;;;0.77;;
43676;SDS011;29275;48.800;18.102;2022-08-11T09:54:41;1.00;;;0.60;;
43676;SDS011;29275;48.800;18.102;2022-08-11T09:57:48;8.10;;;1.15;;
43676;SDS011;29275;48.800;18.102;2022-08-11T10:01:09;1.98;;;0.70;;
43676;SDS011;29275;48.800;18.102;2022-08-11T10:04:37;9.98;;;0.77;;
43676;SDS011;29275;48.800;18.102;2022-08-11T10:07:44;2.38;;;0.73;;
43676;SDS011;29275;48.800;18.102;2022-08-11T10:10:55;6.38;;;0.60;;
43676;SDS011;29275;48.800;18.102;2022-08-11T10:13:58;3.17;;;0.60;;
43676;SDS011;29275;48.800;18.102;2022-08-11T10:17:35;0.95;;;0.50;;
43676;SDS011;29275;48.800;18.102;2022-08-11T10:21:13;0.77;;;0.63;;
43676;SDS011;29275;48.800;18.102;2022-08-11T10:24:18;1.85;;;0.60;;
43676;SDS011;29275;48.800;18.102;2022-08-11T10:27:43;1.35;;;0.57;;
43676;SDS011;29275;48.800;18.102;2022-08-11T10:31:05;0.88;;;0.55;;
43676;SDS011;29275;48.800;18.102;2022-08-11T10:34:40;3.25;;;0.70;;
43676;SDS011;29275;48.800;18.102;2022-08-11T10:37:54;1.48;;;0.80;;
43676;SDS011;29275;48.800;18.102;2022-08-11T10:41:09;2.45;;;0.77;;
43676;SDS011;29275;48.800;18.102;2022-08-11T10:44:40;1.15;;;0.70;;
43676;SDS011;29275;48.800;18.102;2022-08-11T10:47:44;3.85;;;0.75;;
43676;SDS011;29275;48.800;18.102;2022-08-11T10:50:52;4.60;;;1.08;;
43676;SDS011;29275;48.800;18.102;2022-08-11T10:54:14;2.03;;;0.80;;
43676;SDS011;29275;48.800;18.102;2022-08-11T10:57:35;2.47;;;1.00;;
43676;SDS011;29275;48.800;18.102;2022-08-11T11:01:06;3.55;;;0.50;;
43676;SDS011;29275;48.800;18.102;2022-08-11T11:04:13;0.82;;;0.55;;
43676;SDS011;29275;48.800;18.102;2022-08-11T11:07:18;1.65;;;0.70;;
43676;SDS011;29275;48.800;18.102;2022-08-11T11:10:24;2.95;;;0.70;;
43676;SDS011;29275;48.800;18.102;2022-08-11T11:13:26;1.05;;;0.40;;
43676;SDS011;29275;48.800;18.102;2022-08-11T11:16:55;0.77;;;0.50;;
43676;SDS011;29275;48.800;18.102;2022-08-11T11:20:18;2.85;;;0.45;;
43676;SDS011;29275;48.800;18.102;2022-08-11T11:23:52;1.10;;;0.63;;
43676;SDS011;29275;48.800;18.102;2022-08-11T11:27:13;0.82;;;0.43;;
43676;SDS011;29275;48.800;18.102;2022-08-11T11:41:05;2.20;;;0.67;;
43676;SDS011;29275;48.800;18.102;2022-08-11T11:44:28;0.57;;;0.38;;
43676;SDS011;29275;48.800;18.102;2022-08-11T11:47:31;0.73;;;0.43;;
43676;SDS011;29275;48.800;18.102;2022-08-11T11:50:34;4.18;;;0.50;;
43676;SDS011;29275;48.800;18.102;2022-08-11T11:53:37;3.38;;;0.70;;
43676;SDS011;29275;48.800;18.102;2022-08-11T11:56:40;1.83;;;0.60;;
43676;SDS011;29275;48.800;18.102;2022-08-11T11:59:43;1.88;;;0.70;;
43676;SDS011;29275;48.800;18.102;2022-08-11T12:03:09;3.00;;;0.60;;
43676;SDS011;29275;48.800;18.102;2022-08-11T12:06:12;0.80;;;0.40;;
43676;SDS011;29275;48.800;18.102;2022-08-11T12:09:15;1.25;;;0.50;;
43676;SDS011;29275;48.800;18.102;2022-08-11T12:12:24;2.50;;;0.85;;
43676;SDS011;29275;48.800;18.102;2022-08-11T12:15:49;1.33;;;0.50;;
43676;SDS011;29275;48.800;18.102;2022-08-11T12:19:14;0.75;;;0.40;;
43676;SDS011;29275;48.800;18.102;2022-08-11T12:22:17;1.98;;;0.70;;
43676;SDS011;29275;48.800;18.102;2022-08-11T12:25:38;0.90;;;0.50;;
43676;SDS011;29275;48.800;18.102;2022-08-11T12:29:20;0.50;;;0.40;;
43676;SDS011;29275;48.800;18.102;2022-08-11T12:32:28;0.68;;;0.50;;
43676;SDS011;29275;48.800;18.102;2022-08-11T12:35:31;0.80;;;0.50;;
43676;SDS011;29275;48.800;18.102;2022-08-11T12:38:35;3.10;;;0.60;;
43676;SDS011;29275;48.800;18.102;2022-08-11T12:41:38;6.65;;;0.60;;
43676;SDS011;29275;48.800;18.102;2022-08-11T12:45:02;0.90;;;0.40;;
43676;SDS011;29275;48.800;18.102;2022-08-11T12:48:32;1.00;;;0.60;;
43676;SDS011;29275;48.800;18.102;2022-08-11T12:52:04;1.02;;;0.50;;
43676;SDS011;29275;48.800;18.102;2022-08-11T12:55:16;1.85;;;0.70;;
43676;SDS011;29275;48.800;18.102;2022-08-11T12:58:39;1.73;;;0.60;;
43676;SDS011;29275;48.800;18.102;2022-08-11T13:01:42;2.65;;;0.52;;
43676;SDS011;29275;48.800;18.102;2022-08-11T13:05:04;2.28;;;0.50;;
43676;SDS011;29275;48.800;18.102;2022-08-11T13:08:08;1.17;;;0.63;;
43676;SDS011;29275;48.800;18.102;2022-08-11T13:11:10;1.33;;;0.70;;
43676;SDS011;29275;48.800;18.102;2022-08-11T13:14:51;3.33;;;0.77;;
43676;SDS011;29275;48.800;18.102;2022-08-11T13:17:54;1.90;;;0.60;;
43676;SDS011;29275;48.800;18.102;2022-08-11T13:20:56;5.05;;;1.42;;
43676;SDS011;29275;48.800;18.102;2022-08-11T13:23:58;1.33;;;0.70;;
43676;SDS011;29275;48.800;18.102;2022-08-11T13:27:04;1.23;;;0.55;;
43676;SDS011;29275;48.800;18.102;2022-08-11T13:30:06;1.90;;;0.50;;
43676;SDS011;29275;48.800;18.102;2022-08-11T13:33:27;2.90;;;0.55;;
43676;SDS011;29275;48.800;18.102;2022-08-11T13:36:29;1.13;;;0.57;;
43676;SDS011;29275;48.800;18.102;2022-08-11T13:39:31;2.05;;;0.50;;
43676;SDS011;29275;48.800;18.102;2022-08-11T13:42:34;1.05;;;0.50;;
43676;SDS011;29275;48.800;18.102;2022-08-11T13:45:36;2.55;;;0.60;;
43676;SDS011;29275;48.800;18.102;2022-08-11T13:48:39;3.38;;;0.80;;
43676;SDS011;29275;48.800;18.102;2022-08-11T13:51:42;0.88;;;0.50;;
43676;SDS011;29275;48.800;18.102;2022-08-11T13:54:45;1.30;;;0.75;;
43676;SDS011;29275;48.800;18.102;2022-08-11T13:57:52;1.00;;;0.50;;
43676;SDS011;29275;48.800;18.102;2022-08-11T14:01:14;1.23;;;0.50;;
43676;SDS011;29275;48.800;18.102;2022-08-11T14:08:02;1.35;;;0.50;;
43676;SDS011;29275;48.800;18.102;2022-08-11T14:11:03;1.00;;;0.50;;
43676;SDS011;29275;48.800;18.102;2022-08-11T14:14:48;0.80;;;0.60;;
43676;SDS011;29275;48.800;18.102;2022-08-11T14:17:57;3.33;;;0.52;;
43676;SDS011;29275;48.800;18.102;2022-08-11T14:21:03;2.53;;;0.52;;
43676;SDS011;29275;48.800;18.102;2022-08-11T14:24:27;1.98;;;0.75;;
43676;SDS011;29275;48.800;18.102;2022-08-11T14:27:30;0.70;;;0.55;;
43676;SDS011;29275;48.800;18.102;2022-08-11T14:30:52;0.65;;;0.45;;
43676;SDS011;29275;48.800;18.102;2022-08-11T14:34:09;2.20;;;0.50;;
43676;SDS011;29275;48.800;18.102;2022-08-11T14:40:22;1.40;;;0.50;;
43676;SDS011;29275;48.800;18.102;2022-08-11T14:43:43;3.17;;;0.50;;
43676;SDS011;29275;48.800;18.102;2022-08-11T14:47:15;1.35;;;0.57;;
43676;SDS011;29275;48.800;18.102;2022-08-11T14:50:26;0.90;;;0.50;;
43676;SDS011;29275;48.800;18.102;2022-08-11T14:53:30;1.25;;;0.40;;
43676;SDS011;29275;48.800;18.102;2022-08-11T14:56:32;1.17;;;0.50;;
43676;SDS011;29275;48.800;18.102;2022-08-11T14:59:37;0.95;;;0.60;;
43676;SDS011;29275;48.800;18.102;2022-08-11T15:02:39;1.35;;;0.52;;
43676;SDS011;29275;48.800;18.102;2022-08-11T15:06:02;3.72;;;0.70;;
43676;SDS011;29275;48.800;18.102;2022-08-11T15:09:05;2.15;;;0.60;;
43676;SDS011;29275;48.800;18.102;2022-08-11T15:12:12;2.17;;;0.68;;
43676;SDS011;29275;48.800;18.102;2022-08-11T15:15:35;1.33;;;0.55;;
43676;SDS011;29275;48.800;18.102;2022-08-11T15:18:56;1.88;;;0.80;;
43676;SDS011;29275;48.800;18.102;2022-08-11T15:21:59;1.30;;;0.60;;
43676;SDS011;29275;48.800;18.102;2022-08-11T15:25:26;1.63;;;0.68;;
43676;SDS011;29275;48.800;18.102;2022-08-11T15:28:30;1.52;;;0.50;;
43676;SDS011;29275;48.800;18.102;2022-08-11T15:31:54;1.42;;;0.50;;
43676;SDS011;29275;48.800;18.102;2022-08-11T15:35:15;1.55;;;0.80;;
43676;SDS011;29275;48.800;18.102;2022-08-11T15:38:46;0.70;;;0.43;;
43676;SDS011;29275;48.800;18.102;2022-08-11T15:42:03;1.07;;;0.50;;
43676;SDS011;29275;48.800;18.102;2022-08-11T15:45:27;1.00;;;0.50;;
43676;SDS011;29275;48.800;18.102;2022-08-11T15:48:57;1.25;;;0.40;;
43676;SDS011;29275;48.800;18.102;2022-08-11T15:52:08;0.77;;;0.40;;
43676;SDS011;29275;48.800;18.102;2022-08-11T15:55:11;0.95;;;0.50;;
43676;SDS011;29275;48.800;18.102;2022-08-11T15:58:14;1.40;;;0.40;;
43676;SDS011;29275;48.800;18.102;2022-08-11T16:01:37;0.90;;;0.45;;
43676;SDS011;29275;48.800;18.102;2022-08-11T16:05:01;1.08;;;0.50;;
43676;SDS011;29275;48.800;18.102;2022-08-11T16:08:04;2.65;;;0.90;;
43676;SDS011;29275;48.800;18.102;2022-08-11T16:11:13;1.95;;;0.60;;
43676;SDS011;29275;48.800;18.102;2022-08-11T16:14:16;1.65;;;0.52;;
43676;SDS011;29275;48.800;18.102;2022-08-11T16:17:43;0.70;;;0.30;;
43676;SDS011;29275;48.800;18.102;2022-08-11T16:20:46;1.02;;;0.30;;
43676;SDS011;29275;48.800;18.102;2022-08-11T16:23:52;1.33;;;0.70;;
43676;SDS011;29275;48.800;18.102;2022-08-11T16:26:57;0.40;;;0.30;;
43676;SDS011;29275;48.800;18.102;2022-08-11T16:30:13;2.42;;;0.50;;
43676;SDS011;29275;48.800;18.102;2022-08-11T16:33:17;3.00;;;0.60;;
43676;SDS011;29275;48.800;18.102;2022-08-11T16:36:41;0.75;;;0.55;;
43676;SDS011;29275;48.800;18.102;2022-08-11T16:40:02;2.65;;;0.52;;
43676;SDS011;29275;48.800;18.102;2022-08-11T16:43:08;2.42;;;0.40;;
43676;SDS011;29275;48.800;18.102;2022-08-11T16:46:31;1.08;;;0.60;;
43676;SDS011;29275;48.800;18.102;2022-08-11T16:49:55;1.58;;;0.60;;
43676;SDS011;29275;48.800;18.102;2022-08-11T16:53:02;1.08;;;0.50;;
43676;SDS011;29275;48.800;18.102;2022-08-11T16:56:05;2.85;;;0.95;;
43676;SDS011;29275;48.800;18.102;2022-08-11T16:59:14;1.95;;;0.82;;
43676;SDS011;29275;48.800;18.102;2022-08-11T17:02:20;7.30;;;0.70;;
43676;SDS011;29275;48.800;18.102;2022-08-11T17:05:44;0.52;;;0.35;;
43676;SDS011;29275;48.800;18.102;2022-08-11T17:09:18;1.35;;;0.40;;
43676;SDS011;29275;48.800;18.102;2022-08-11T17:12:43;0.88;;;0.60;;
43676;SDS011;29275;48.800;18.102;2022-08-11T17:16:07;3.08;;;0.60;;
43676;SDS011;29275;48.800;18.102;2022-08-11T17:19:34;5.88;;;1.75;;
43676;SDS011;29275;48.800;18.102;2022-08-11T17:22:56;5.82;;;1.55;;
43676;SDS011;29275;48.800;18.102;2022-08-11T17:26:33;15.02;;;4.53;;
43676;SDS011;29275;48.800;18.102;2022-08-11T17:29:58;11.85;;;3.75;;
43676;SDS011;29275;48.800;18.102;2022-08-11T17:33:03;2.80;;;1.20;;
43676;SDS011;29275;48.800;18.102;2022-08-11T17:36:23;4.97;;;0.90;;
43676;SDS011;29275;48.800;18.102;2022-08-11T17:39:28;1.50;;;0.70;;
43676;SDS011;29275;48.800;18.102;2022-08-11T17:42:35;1.20;;;0.40;;
43676;SDS011;29275;48.800;18.102;2022-08-11T17:45:56;7.35;;;1.67;;
43676;SDS011;29275;48.800;18.102;2022-08-11T17:49:18;6.65;;;1.60;;
43676;SDS011;29275;48.800;18.102;2022-08-11T17:52:23;1.85;;;0.50;;
43676;SDS011;29275;48.800;18.102;2022-08-11T17:55:45;1.83;;;0.80;;
43676;SDS011;29275;48.800;18.102;2022-08-11T17:59:14;2.65;;;0.63;;
43676;SDS011;29275;48.800;18.102;2022-08-11T18:02:39;1.55;;;0.70;;
43676;SDS011;29275;48.800;18.102;2022-08-11T18:06:03;3.33;;;0.68;;
43676;SDS011;29275;48.800;18.102;2022-08-11T18:09:18;1.80;;;0.95;;
43676;SDS011;29275;48.800;18.102;2022-08-11T18:12:40;4.60;;;1.27;;
43676;SDS011;29275;48.800;18.102;2022-08-11T18:16:02;0.88;;;0.50;;
43676;SDS011;29275;48.800;18.102;2022-08-11T18:19:28;2.55;;;1.10;;
43676;SDS011;29275;48.800;18.102;2022-08-11T18:22:54;1.90;;;0.70;;
43676;SDS011;29275;48.800;18.102;2022-08-11T18:26:16;3.05;;;0.57;;
43676;SDS011;29275;48.800;18.102;2022-08-11T18:29:40;2.40;;;0.85;;
43676;SDS011;29275;48.800;18.102;2022-08-11T18:33:02;1.38;;;0.68;;
43676;SDS011;29275;48.800;18.102;2022-08-11T18:40:25;2.30;;;0.50;;
43676;SDS011;29275;48.800;18.102;2022-08-11T18:43:48;1.20;;;0.50;;
43676;SDS011;29275;48.800;18.102;2022-08-11T18:47:13;0.50;;;0.30;;
43676;SDS011;29275;48.800;18.102;2022-08-11T18:50:37;14.02;;;1.15;;
43676;SDS011;29275;48.800;18.102;2022-08-11T18:54:18;0.95;;;0.50;;
43676;SDS011;29275;48.800;18.102;2022-08-11T18:57:40;0.38;;;0.28;;
43676;SDS011;29275;48.800;18.102;2022-08-11T19:01:02;0.80;;;0.40;;
43676;SDS011;29275;48.800;18.102;2022-08-11T19:04:25;0.77;;;0.50;;
43676;SDS011;29275;48.800;18.102;2022-08-11T19:07:47;0.60;;;0.35;;
43676;SDS011;29275;48.800;18.102;2022-08-11T19:11:39;1.27;;;0.35;;
43676;SDS011;29275;48.800;18.102;2022-08-11T19:21:05;1.45;;;0.47;;
43676;SDS011;29275;48.800;18.102;2022-08-11T19:24:39;0.70;;;0.50;;
43676;SDS011;29275;48.800;18.102;2022-08-11T19:28:03;2.05;;;0.40;;
43676;SDS011;29275;48.800;18.102;2022-08-11T19:31:26;0.70;;;0.40;;
43676;SDS011;29275;48.800;18.102;2022-08-11T19:34:47;1.73;;;0.50;;
43676;SDS011;29275;48.800;18.102;2022-08-11T19:38:09;1.23;;;0.50;;
43676;SDS011;29275;48.800;18.102;2022-08-11T19:41:30;1.45;;;0.40;;
43676;SDS011;29275;48.800;18.102;2022-08-11T19:44:58;0.52;;;0.30;;
43676;SDS011;29275;48.800;18.102;2022-08-11T19:49:14;1.88;;;0.70;;
43676;SDS011;29275;48.800;18.102;2022-08-11T19:52:40;0.65;;;0.32;;
43676;SDS011;29275;48.800;18.102;2022-08-11T19:56:18;2.67;;;0.50;;
43676;SDS011;29275;48.800;18.102;2022-08-11T19:59:40;1.83;;;0.70;;
43676;SDS011;29275;48.800;18.102;2022-08-11T20:03:06;2.08;;;0.70;;
43676;SDS011;29275;48.800;18.102;2022-08-11T20:06:28;2.40;;;0.60;;
43676;SDS011;29275;48.800;18.102;2022-08-11T20:09:49;3.08;;;0.60;;
43676;SDS011;29275;48.800;18.102;2022-08-11T20:13:10;2.97;;;0.50;;
43676;SDS011;29275;48.800;18.102;2022-08-11T20:16:31;2.15;;;0.70;;
43676;SDS011;29275;48.800;18.102;2022-08-11T20:19:53;5.57;;;0.80;;
43676;SDS011;29275;48.800;18.102;2022-08-11T20:23:15;1.10;;;0.63;;
43676;SDS011;29275;48.800;18.102;2022-08-11T20:26:36;1.77;;;0.70;;
43676;SDS011;29275;48.800;18.102;2022-08-11T20:29:57;0.80;;;0.40;;
43676;SDS011;29275;48.800;18.102;2022-08-11T20:33:18;1.00;;;0.55;;
43676;SDS011;29275;48.800;18.102;2022-08-11T20:36:39;2.55;;;0.55;;
43676;SDS011;29275;48.800;18.102;2022-08-11T20:40:02;5.65;;;0.60;;
43676;SDS011;29275;48.800;18.102;2022-08-11T20:43:25;0.77;;;0.40;;
43676;SDS011;29275;48.800;18.102;2022-08-11T20:47:07;1.33;;;0.65;;
43676;SDS011;29275;48.800;18.102;2022-08-11T20:50:30;1.98;;;0.90;;
43676;SDS011;29275;48.800;18.102;2022-08-11T20:53:52;4.13;;;0.80;;
43676;SDS011;29275;48.800;18.102;2022-08-11T20:57:14;4.20;;;0.60;;
43676;SDS011;29275;48.800;18.102;2022-08-11T21:00:55;1.58;;;0.57;;
43676;SDS011;29275;48.800;18.102;2022-08-11T21:04:24;2.40;;;0.77;;
43676;SDS011;29275;48.800;18.102;2022-08-11T21:07:54;1.15;;;0.68;;
43676;SDS011;29275;48.800;18.102;2022-08-11T21:11:16;1.92;;;0.80;;
43676;SDS011;29275;48.800;18.102;2022-08-11T21:14:37;7.13;;;0.73;;
43676;SDS011;29275;48.800;18.102;2022-08-11T21:18:05;0.65;;;0.40;;
43676;SDS011;29275;48.800;18.102;2022-08-11T21:21:32;1.92;;;0.68;;
43676;SDS011;29275;48.800;18.102;2022-08-11T21:25:44;1.20;;;0.53;;
43676;SDS011;29275;48.800;18.102;2022-08-11T21:30:20;0.80;;;0.50;;
43676;SDS011;29275;48.800;18.102;2022-08-11T21:34:56;1.15;;;0.73;;
43676;SDS011;29275;48.800;18.102;2022-08-11T21:39:14;0.75;;;0.50;;
43676;SDS011;29275;48.800;18.102;2022-08-11T21:43:46;1.10;;;0.52;;
43676;SDS011;29275;48.800;18.102;2022-08-11T21:48:10;1.92;;;0.57;;
43676;SDS011;29275;48.800;18.102;2022-08-11T21:52:10;1.23;;;0.50;;
43676;SDS011;29275;48.800;18.102;2022-08-11T21:56:44;1.15;;;0.63;;
43676;SDS011;29275;48.800;18.102;2022-08-11T22:01:32;1.15;;;0.57;;
43676;SDS011;29275;48.800;18.102;2022-08-11T22:10:26;2.75;;;0.73;;
43676;SDS011;29275;48.800;18.102;2022-08-11T22:15:10;4.20;;;0.60;;
43676;SDS011;29275;48.800;18.102;2022-08-11T22:19:43;2.55;;;0.57;;
43676;SDS011;29275;48.800;18.102;2022-08-11T22:23:05;1.73;;;0.77;;
43676;SDS011;29275;48.800;18.102;2022-08-11T22:26:35;1.60;;;0.63;;
43676;SDS011;29275;48.800;18.102;2022-08-11T22:29:56;1.55;;;0.60;;
43676;SDS011;29275;48.800;18.102;2022-08-11T22:33:17;3.22;;;0.77;;
43676;SDS011;29275;48.800;18.102;2022-08-11T22:36:58;1.30;;;0.60;;
43676;SDS011;29275;48.800;18.102;2022-08-11T22:40:28;1.42;;;0.50;;
43676;SDS011;29275;48.800;18.102;2022-08-11T22:43:48;1.00;;;0.43;;
43676;SDS011;29275;48.800;18.102;2022-08-11T22:47:09;0.80;;;0.50;;
43676;SDS011;29275;48.800;18.102;2022-08-11T22:50:41;1.15;;;0.55;;
43676;SDS011;29275;48.800;18.102;2022-08-11T22:54:02;1.48;;;0.52;;
43676;SDS011;29275;48.800;18.102;2022-08-11T22:57:24;1.35;;;0.55;;
43676;SDS011;29275;48.800;18.102;2022-08-11T23:01:01;1.27;;;0.70;;
43676;SDS011;29275;48.800;18.102;2022-08-11T23:04:22;2.05;;;1.02;;
43676;SDS011;29275;48.800;18.102;2022-08-11T23:07:43;1.98;;;0.80;;
43676;SDS011;29275;48.800;18.102;2022-08-11T23:11:04;1.77;;;0.73;;
43676;SDS011;29275;48.800;18.102;2022-08-11T23:14:25;4.70;;;0.73;;